New River MCAS, H, Mccutcheon Fld, Airport Jacksonville US
ICAO: KNCA
IATA: NCA
Category: Medium
Scheduled Services: No

Elevation: 26 ft
TransAlt. 18000 ft.

Airport Communications:
CHERRY POINT APP/DEP:119.35
ARRIVAL:124.85
ATIS:28.832
CLNC DEL:23.902
GND:121.8
OPS:23.64
PMSV METRO:24.477
TWR:120

KNCA Zoom In..

Runways:

(A) RW 01 length 4790 ft width 150 ft
ILS 111.10 / hdg 8

(B) RW 05 length 5114 ft width 150 ft
---- / hdg 53

(C) RW 19 length 4790 ft width 150 ft
---- / hdg 188

(D) RW 23 length 5114 ft width 150 ft
---- / hdg 233

Location; KNCA
Day. 23 / Time. 15.27 Zulu
* Altimeter: 29.87
* Temperature: 20° c. 68°f.
* Wind from: 230° Speed 09 kn with Gusts up to 17 kn.
Dewpoint: 19° c.
Visibility: 7 Statute Miles.
Clouds: Scattered 1600 ft.
Clouds: Scattered 4900 ft.
Clouds: Overcast 8000 ft.

KNCA 231527Z 23009G17KT 7SM SCT016 SCT049 OVC080 20/19 A2987 RMK AO2 RAE1457 P0000 T02000189


Wind From 230°
Speed 09 kn.

YouTube Music Video
 
jpsmedia.com for Web Design  worldairports.se 2018   terms of use